createdAt,value
2018-07-04T05:35:43.000Z,16.16
2018-07-04T05:35:53.000Z,16.21
2018-07-04T05:36:03.000Z,16.26
2018-07-04T05:36:13.000Z,16.23
2018-07-04T05:36:23.000Z,16.23
2018-07-04T05:36:33.000Z,16.29
2018-07-04T05:36:43.000Z,16.20
2018-07-04T05:36:53.000Z,16.28
2018-07-04T05:37:03.000Z,16.32
2018-07-04T05:37:13.000Z,16.28
2018-07-04T05:37:23.000Z,16.23
2018-07-04T05:37:33.000Z,16.21
2018-07-04T05:37:43.000Z,16.21
2018-07-04T05:37:53.000Z,16.36
2018-07-04T05:38:03.000Z,16.24
2018-07-04T05:38:13.000Z,16.23
2018-07-04T05:38:23.000Z,16.23
2018-07-04T05:38:33.000Z,16.17
2018-07-04T05:38:43.000Z,16.12
2018-07-04T05:38:53.000Z,16.05
2018-07-04T05:39:03.000Z,15.98
2018-07-04T05:39:13.000Z,16.00
2018-07-04T05:39:23.000Z,15.83
2018-07-04T05:39:33.000Z,15.90
2018-07-04T05:39:43.000Z,15.91
2018-07-04T05:39:53.000Z,16.00
2018-07-04T05:40:03.000Z,15.90
2018-07-04T05:40:13.000Z,15.98
2018-07-04T05:40:23.000Z,15.98
2018-07-04T05:40:33.000Z,15.97
2018-07-04T05:40:43.000Z,15.88
2018-07-04T05:40:53.000Z,15.95
2018-07-04T05:41:03.000Z,15.90
2018-07-04T05:41:13.000Z,15.79
2018-07-04T05:41:23.000Z,15.76
2018-07-04T05:41:33.000Z,15.90
2018-07-04T05:41:43.000Z,15.92
2018-07-04T05:41:53.000Z,15.73
2018-07-04T05:42:03.000Z,15.86
2018-07-04T05:42:13.000Z,15.75
2018-07-04T05:42:23.000Z,15.83
2018-07-04T05:42:33.000Z,15.90
2018-07-04T05:42:43.000Z,15.91
2018-07-04T05:42:53.000Z,15.95
2018-07-04T05:43:03.000Z,16.01
2018-07-04T05:43:13.000Z,16.12
2018-07-04T05:43:23.000Z,16.08
2018-07-04T05:43:33.000Z,16.08
2018-07-04T05:43:43.000Z,16.10
2018-07-04T05:43:53.000Z,16.20
2018-07-04T05:44:03.000Z,16.16
2018-07-04T05:44:13.000Z,16.23
2018-07-04T05:44:23.000Z,16.28
2018-07-04T05:44:33.000Z,16.33
2018-07-04T05:44:43.000Z,16.32
2018-07-04T05:44:53.000Z,16.26
2018-07-04T05:45:03.000Z,16.26
2018-07-04T05:45:13.000Z,16.21
2018-07-04T05:45:23.000Z,16.17
2018-07-04T05:45:33.000Z,16.26
2018-07-04T05:45:43.000Z,16.24
2018-07-04T05:45:53.000Z,16.28
2018-07-04T05:46:03.000Z,16.21
2018-07-04T05:46:13.000Z,16.36
2018-07-04T05:46:23.000Z,16.24
2018-07-04T05:46:33.000Z,16.32
2018-07-04T05:46:43.000Z,16.41
2018-07-04T05:46:53.000Z,16.49
2018-07-04T05:47:03.000Z,16.53
2018-07-04T05:47:13.000Z,16.49
2018-07-04T05:47:23.000Z,16.41
2018-07-04T05:47:33.000Z,16.35
2018-07-04T05:47:43.000Z,16.17
2018-07-04T05:47:53.000Z,16.23
2018-07-04T05:48:07.000Z,16.09
2018-07-04T05:48:17.000Z,16.21
2018-07-04T05:48:27.000Z,16.20
2018-07-04T05:48:37.000Z,16.28
2018-07-04T05:48:47.000Z,16.24
2018-07-04T05:48:57.000Z,16.35
2018-07-04T05:49:07.000Z,16.39
2018-07-04T05:49:17.000Z,16.39
2018-07-04T05:49:27.000Z,16.41
2018-07-04T05:49:37.000Z,16.35
2018-07-04T05:49:48.000Z,16.57
2018-07-04T05:49:58.000Z,16.79
2018-07-04T05:50:08.000Z,16.72
2018-07-04T05:50:18.000Z,16.74
2018-07-04T05:50:28.000Z,16.89
2018-07-04T05:50:38.000Z,16.81
2018-07-04T05:50:48.000Z,16.81
2018-07-04T05:50:58.000Z,16.89
2018-07-04T05:51:10.000Z,16.94
2018-07-04T05:51:20.000Z,16.93
2018-07-04T05:51:30.000Z,16.89
2018-07-04T05:51:40.000Z,16.89
2018-07-04T05:51:50.000Z,16.83
2018-07-04T05:52:00.000Z,16.91
2018-07-04T05:52:10.000Z,16.84
2018-07-04T05:52:20.000Z,16.78
2018-07-04T05:52:30.000Z,16.78
2018-07-04T05:52:40.000Z,16.81
2018-07-04T05:52:50.000Z,16.86
2018-07-04T05:53:00.000Z,16.74
2018-07-04T05:53:10.000Z,16.86
2018-07-04T05:53:20.000Z,16.83
2018-07-04T05:53:30.000Z,16.74
2018-07-04T05:53:40.000Z,16.78
2018-07-04T05:53:50.000Z,16.81
2018-07-04T05:54:00.000Z,16.81
2018-07-04T05:54:10.000Z,16.74
2018-07-04T05:54:20.000Z,16.91
2018-07-04T05:54:30.000Z,16.90
2018-07-04T05:54:41.000Z,16.91
2018-07-04T05:54:51.000Z,16.86
2018-07-04T05:55:01.000Z,16.90
2018-07-04T05:55:11.000Z,16.79
2018-07-04T05:55:21.000Z,16.89
2018-07-04T05:55:31.000Z,16.90
2018-07-04T05:55:41.000Z,16.83
2018-07-04T05:55:51.000Z,16.91
2018-07-04T05:56:01.000Z,17.01
2018-07-04T05:56:11.000Z,16.87
2018-07-04T05:56:21.000Z,16.97
2018-07-04T05:56:31.000Z,16.91
2018-07-04T05:56:41.000Z,17.02
2018-07-04T05:56:51.000Z,17.04
2018-07-04T05:57:01.000Z,16.91
2018-07-04T05:57:11.000Z,17.01
2018-07-04T05:57:21.000Z,16.93
2018-07-04T05:57:31.000Z,17.11
2018-07-04T05:57:41.000Z,17.11
2018-07-04T05:57:51.000Z,17.05
2018-07-04T05:58:01.000Z,17.06
2018-07-04T05:58:11.000Z,16.96
2018-07-04T05:58:21.000Z,17.11
2018-07-04T05:58:31.000Z,17.19
2018-07-04T05:58:43.000Z,17.15
2018-07-04T05:58:54.000Z,17.14
2018-07-04T05:59:04.000Z,17.23
2018-07-04T05:59:14.000Z,17.09
2018-07-04T05:59:23.000Z,17.14
2018-07-04T05:59:33.000Z,17.16
2018-07-04T05:59:43.000Z,17.12
2018-07-04T05:59:53.000Z,17.02
2018-07-04T06:00:03.000Z,17.04
2018-07-04T06:00:13.000Z,17.04
2018-07-04T06:00:25.000Z,17.06
2018-07-04T06:00:35.000Z,17.04
2018-07-04T06:00:45.000Z,17.04
2018-07-04T06:00:56.000Z,16.90
2018-07-04T06:01:06.000Z,16.81
2018-07-04T06:01:16.000Z,16.71
2018-07-04T06:01:26.000Z,16.78
